sensor_id;sensor_type;location;lat;lon;timestamp;P1;durP1;ratioP1;P2;durP2;ratioP2
62788;SDS011;66401;42.016;21.454;2023-04-09T00:00:36;12.87;;;9.23;;
62788;SDS011;66401;42.016;21.454;2023-04-09T00:03:01;12.73;;;8.50;;
62788;SDS011;66401;42.016;21.454;2023-04-09T00:05:27;14.03;;;8.80;;
62788;SDS011;66401;42.016;21.454;2023-04-09T00:07:53;14.20;;;9.40;;
62788;SDS011;66401;42.016;21.454;2023-04-09T00:10:18;12.77;;;9.03;;
62788;SDS011;66401;42.016;21.454;2023-04-09T00:12:44;12.70;;;9.33;;
62788;SDS011;66401;42.016;21.454;2023-04-09T00:15:12;13.37;;;9.27;;
62788;SDS011;66401;42.016;21.454;2023-04-09T00:17:38;12.10;;;8.73;;
62788;SDS011;66401;42.016;21.454;2023-04-09T00:20:03;12.67;;;8.17;;
62788;SDS011;66401;42.016;21.454;2023-04-09T00:22:30;13.97;;;9.07;;
62788;SDS011;66401;42.016;21.454;2023-04-09T00:24:55;14.13;;;9.13;;
62788;SDS011;66401;42.016;21.454;2023-04-09T00:27:21;13.13;;;8.37;;
62788;SDS011;66401;42.016;21.454;2023-04-09T00:29:47;13.23;;;8.90;;
62788;SDS011;66401;42.016;21.454;2023-04-09T00:32:12;12.47;;;9.10;;
62788;SDS011;66401;42.016;21.454;2023-04-09T00:34:39;12.37;;;9.03;;
62788;SDS011;66401;42.016;21.454;2023-04-09T00:37:04;14.53;;;10.40;;
62788;SDS011;66401;42.016;21.454;2023-04-09T00:39:30;15.97;;;10.23;;
62788;SDS011;66401;42.016;21.454;2023-04-09T00:41:56;13.37;;;9.77;;
62788;SDS011;66401;42.016;21.454;2023-04-09T00:44:23;17.40;;;10.00;;
62788;SDS011;66401;42.016;21.454;2023-04-09T00:46:49;15.50;;;9.90;;
62788;SDS011;66401;42.016;21.454;2023-04-09T00:49:15;14.20;;;8.90;;
62788;SDS011;66401;42.016;21.454;2023-04-09T00:51:40;12.17;;;9.40;;
62788;SDS011;66401;42.016;21.454;2023-04-09T00:54:07;12.87;;;9.53;;
62788;SDS011;66401;42.016;21.454;2023-04-09T00:56:33;13.40;;;9.30;;
62788;SDS011;66401;42.016;21.454;2023-04-09T00:59:00;11.00;;;9.03;;
62788;SDS011;66401;42.016;21.454;2023-04-09T01:01:26;13.23;;;10.07;;
62788;SDS011;66401;42.016;21.454;2023-04-09T01:03:52;13.13;;;9.50;;
62788;SDS011;66401;42.016;21.454;2023-04-09T01:06:25;16.53;;;9.73;;
62788;SDS011;66401;42.016;21.454;2023-04-09T01:09:08;14.17;;;10.53;;
62788;SDS011;66401;42.016;21.454;2023-04-09T01:14:14;15.80;;;9.80;;
62788;SDS011;66401;42.016;21.454;2023-04-09T01:16:51;13.83;;;8.40;;
62788;SDS011;66401;42.016;21.454;2023-04-09T01:22:28;16.97;;;9.67;;
62788;SDS011;66401;42.016;21.454;2023-04-09T01:25:02;16.70;;;10.27;;
62788;SDS011;66401;42.016;21.454;2023-04-09T01:27:36;15.93;;;10.63;;
62788;SDS011;66401;42.016;21.454;2023-04-09T01:30:11;14.63;;;10.40;;
62788;SDS011;66401;42.016;21.454;2023-04-09T01:32:40;16.63;;;10.97;;
62788;SDS011;66401;42.016;21.454;2023-04-09T01:35:06;16.90;;;11.80;;
62788;SDS011;66401;42.016;21.454;2023-04-09T01:37:33;15.00;;;11.00;;
62788;SDS011;66401;42.016;21.454;2023-04-09T01:39:59;18.50;;;11.67;;
62788;SDS011;66401;42.016;21.454;2023-04-09T01:42:26;17.60;;;11.87;;
62788;SDS011;66401;42.016;21.454;2023-04-09T01:44:52;17.27;;;11.77;;
62788;SDS011;66401;42.016;21.454;2023-04-09T01:47:18;15.53;;;12.30;;
62788;SDS011;66401;42.016;21.454;2023-04-09T01:49:45;17.27;;;12.87;;
62788;SDS011;66401;42.016;21.454;2023-04-09T01:52:11;18.30;;;13.20;;
62788;SDS011;66401;42.016;21.454;2023-04-09T01:54:36;19.77;;;13.77;;
62788;SDS011;66401;42.016;21.454;2023-04-09T01:57:02;19.23;;;12.93;;
62788;SDS011;66401;42.016;21.454;2023-04-09T01:59:27;20.53;;;13.87;;
62788;SDS011;66401;42.016;21.454;2023-04-09T02:02:00;21.13;;;14.33;;
62788;SDS011;66401;42.016;21.454;2023-04-09T02:04:48;22.73;;;14.87;;
62788;SDS011;66401;42.016;21.454;2023-04-09T02:07:22;23.93;;;14.80;;
62788;SDS011;66401;42.016;21.454;2023-04-09T02:09:58;19.63;;;13.13;;
62788;SDS011;66401;42.016;21.454;2023-04-09T02:12:25;24.07;;;14.50;;
62788;SDS011;66401;42.016;21.454;2023-04-09T02:14:54;20.40;;;13.57;;
62788;SDS011;66401;42.016;21.454;2023-04-09T02:17:20;15.00;;;11.53;;
62788;SDS011;66401;42.016;21.454;2023-04-09T02:19:46;21.20;;;13.07;;
62788;SDS011;66401;42.016;21.454;2023-04-09T02:22:12;19.67;;;12.73;;
62788;SDS011;66401;42.016;21.454;2023-04-09T02:24:39;18.90;;;12.93;;
62788;SDS011;66401;42.016;21.454;2023-04-09T02:27:05;19.73;;;12.97;;
62788;SDS011;66401;42.016;21.454;2023-04-09T02:29:31;19.47;;;12.03;;
62788;SDS011;66401;42.016;21.454;2023-04-09T02:31:57;15.87;;;11.90;;
62788;SDS011;66401;42.016;21.454;2023-04-09T02:34:22;17.37;;;12.30;;
62788;SDS011;66401;42.016;21.454;2023-04-09T02:36:48;16.60;;;12.20;;
62788;SDS011;66401;42.016;21.454;2023-04-09T02:39:13;21.17;;;12.77;;
62788;SDS011;66401;42.016;21.454;2023-04-09T02:41:39;19.47;;;12.80;;
62788;SDS011;66401;42.016;21.454;2023-04-09T02:44:04;19.17;;;12.83;;
62788;SDS011;66401;42.016;21.454;2023-04-09T02:46:30;21.23;;;12.70;;
62788;SDS011;66401;42.016;21.454;2023-04-09T02:48:56;19.10;;;13.20;;
62788;SDS011;66401;42.016;21.454;2023-04-09T02:51:21;21.60;;;14.07;;
62788;SDS011;66401;42.016;21.454;2023-04-09T02:53:47;15.73;;;12.20;;
62788;SDS011;66401;42.016;21.454;2023-04-09T02:56:12;17.87;;;11.90;;
62788;SDS011;66401;42.016;21.454;2023-04-09T02:58:38;16.97;;;11.90;;
62788;SDS011;66401;42.016;21.454;2023-04-09T03:01:03;15.00;;;11.00;;
62788;SDS011;66401;42.016;21.454;2023-04-09T03:03:29;16.40;;;11.20;;
62788;SDS011;66401;42.016;21.454;2023-04-09T03:05:55;17.97;;;12.33;;
62788;SDS011;66401;42.016;21.454;2023-04-09T03:08:21;18.47;;;12.40;;
62788;SDS011;66401;42.016;21.454;2023-04-09T03:10:47;17.33;;;12.13;;
62788;SDS011;66401;42.016;21.454;2023-04-09T03:13:12;20.17;;;12.63;;
62788;SDS011;66401;42.016;21.454;2023-04-09T03:15:38;20.27;;;13.43;;
62788;SDS011;66401;42.016;21.454;2023-04-09T03:18:03;23.10;;;15.17;;
62788;SDS011;66401;42.016;21.454;2023-04-09T03:20:29;24.40;;;15.13;;
62788;SDS011;66401;42.016;21.454;2023-04-09T03:22:55;28.00;;;14.60;;
62788;SDS011;66401;42.016;21.454;2023-04-09T03:25:20;20.00;;;13.90;;
62788;SDS011;66401;42.016;21.454;2023-04-09T03:27:46;17.23;;;12.23;;
62788;SDS011;66401;42.016;21.454;2023-04-09T03:30:11;19.37;;;13.20;;
62788;SDS011;66401;42.016;21.454;2023-04-09T03:32:37;19.93;;;12.20;;
62788;SDS011;66401;42.016;21.454;2023-04-09T03:35:02;14.30;;;11.07;;
62788;SDS011;66401;42.016;21.454;2023-04-09T03:37:28;17.80;;;11.80;;
62788;SDS011;66401;42.016;21.454;2023-04-09T03:39:54;20.77;;;12.43;;
62788;SDS011;66401;42.016;21.454;2023-04-09T03:42:19;21.97;;;13.53;;
62788;SDS011;66401;42.016;21.454;2023-04-09T03:44:44;21.30;;;13.07;;
62788;SDS011;66401;42.016;21.454;2023-04-09T03:47:10;20.83;;;12.70;;
62788;SDS011;66401;42.016;21.454;2023-04-09T03:49:35;18.87;;;13.13;;
62788;SDS011;66401;42.016;21.454;2023-04-09T03:52:01;16.73;;;12.20;;
62788;SDS011;66401;42.016;21.454;2023-04-09T03:54:30;20.37;;;12.97;;
62788;SDS011;66401;42.016;21.454;2023-04-09T03:56:55;21.87;;;12.60;;
62788;SDS011;66401;42.016;21.454;2023-04-09T03:59:22;20.47;;;12.23;;
62788;SDS011;66401;42.016;21.454;2023-04-09T04:01:47;18.40;;;13.23;;
62788;SDS011;66401;42.016;21.454;2023-04-09T04:04:13;21.60;;;13.27;;
62788;SDS011;66401;42.016;21.454;2023-04-09T04:06:38;21.50;;;13.77;;
62788;SDS011;66401;42.016;21.454;2023-04-09T04:09:04;22.17;;;14.00;;
62788;SDS011;66401;42.016;21.454;2023-04-09T04:11:29;20.30;;;14.23;;
62788;SDS011;66401;42.016;21.454;2023-04-09T04:13:55;22.43;;;13.67;;
62788;SDS011;66401;42.016;21.454;2023-04-09T04:16:21;20.03;;;14.17;;
62788;SDS011;66401;42.016;21.454;2023-04-09T04:18:46;21.57;;;13.13;;
62788;SDS011;66401;42.016;21.454;2023-04-09T04:21:12;21.33;;;12.40;;
62788;SDS011;66401;42.016;21.454;2023-04-09T04:23:38;21.50;;;12.07;;
62788;SDS011;66401;42.016;21.454;2023-04-09T04:26:08;17.73;;;12.03;;
62788;SDS011;66401;42.016;21.454;2023-04-09T04:28:38;17.77;;;11.80;;
62788;SDS011;66401;42.016;21.454;2023-04-09T04:31:10;18.37;;;12.83;;
62788;SDS011;66401;42.016;21.454;2023-04-09T04:33:37;19.30;;;12.97;;
62788;SDS011;66401;42.016;21.454;2023-04-09T04:36:04;15.60;;;11.47;;
62788;SDS011;66401;42.016;21.454;2023-04-09T04:38:30;18.07;;;11.80;;
62788;SDS011;66401;42.016;21.454;2023-04-09T04:40:56;16.00;;;10.97;;
62788;SDS011;66401;42.016;21.454;2023-04-09T04:43:21;19.30;;;13.03;;
62788;SDS011;66401;42.016;21.454;2023-04-09T04:45:47;17.97;;;12.73;;
62788;SDS011;66401;42.016;21.454;2023-04-09T04:48:12;18.77;;;12.37;;
62788;SDS011;66401;42.016;21.454;2023-04-09T04:50:38;18.57;;;12.50;;
62788;SDS011;66401;42.016;21.454;2023-04-09T04:53:03;18.57;;;12.83;;
62788;SDS011;66401;42.016;21.454;2023-04-09T04:55:29;20.57;;;12.63;;
62788;SDS011;66401;42.016;21.454;2023-04-09T04:57:54;20.37;;;12.73;;
62788;SDS011;66401;42.016;21.454;2023-04-09T05:00:20;21.03;;;13.67;;
62788;SDS011;66401;42.016;21.454;2023-04-09T05:02:45;19.50;;;13.23;;
62788;SDS011;66401;42.016;21.454;2023-04-09T05:05:11;19.77;;;13.70;;
62788;SDS011;66401;42.016;21.454;2023-04-09T05:07:36;19.77;;;12.60;;
62788;SDS011;66401;42.016;21.454;2023-04-09T05:10:02;19.17;;;12.90;;
62788;SDS011;66401;42.016;21.454;2023-04-09T05:12:30;18.63;;;12.30;;
62788;SDS011;66401;42.016;21.454;2023-04-09T05:14:56;19.70;;;12.73;;
62788;SDS011;66401;42.016;21.454;2023-04-09T05:17:21;22.90;;;14.60;;
62788;SDS011;66401;42.016;21.454;2023-04-09T05:19:51;22.07;;;12.93;;
62788;SDS011;66401;42.016;21.454;2023-04-09T05:22:17;20.07;;;13.73;;
62788;SDS011;66401;42.016;21.454;2023-04-09T05:24:43;24.87;;;14.53;;
62788;SDS011;66401;42.016;21.454;2023-04-09T05:27:09;26.73;;;15.37;;
62788;SDS011;66401;42.016;21.454;2023-04-09T05:29:34;23.93;;;15.03;;
62788;SDS011;66401;42.016;21.454;2023-04-09T05:32:00;27.47;;;15.00;;
62788;SDS011;66401;42.016;21.454;2023-04-09T05:34:25;23.50;;;14.57;;
62788;SDS011;66401;42.016;21.454;2023-04-09T05:36:51;26.83;;;15.87;;
62788;SDS011;66401;42.016;21.454;2023-04-09T05:39:17;23.53;;;14.90;;
62788;SDS011;66401;42.016;21.454;2023-04-09T05:41:42;29.43;;;15.73;;
62788;SDS011;66401;42.016;21.454;2023-04-09T05:44:09;26.47;;;16.47;;
62788;SDS011;66401;42.016;21.454;2023-04-09T05:46:35;29.83;;;15.13;;
62788;SDS011;66401;42.016;21.454;2023-04-09T05:49:01;26.80;;;16.93;;
62788;SDS011;66401;42.016;21.454;2023-04-09T05:51:26;27.53;;;16.67;;
62788;SDS011;66401;42.016;21.454;2023-04-09T05:53:52;30.97;;;18.00;;
62788;SDS011;66401;42.016;21.454;2023-04-09T05:56:18;29.10;;;16.60;;
62788;SDS011;66401;42.016;21.454;2023-04-09T05:58:43;30.73;;;18.20;;
62788;SDS011;66401;42.016;21.454;2023-04-09T06:01:09;24.20;;;15.73;;
62788;SDS011;66401;42.016;21.454;2023-04-09T06:03:35;30.00;;;16.83;;
62788;SDS011;66401;42.016;21.454;2023-04-09T06:06:00;32.70;;;18.17;;
62788;SDS011;66401;42.016;21.454;2023-04-09T06:08:26;33.93;;;18.87;;
62788;SDS011;66401;42.016;21.454;2023-04-09T06:10:51;35.77;;;18.47;;
62788;SDS011;66401;42.016;21.454;2023-04-09T06:13:17;27.87;;;18.20;;
62788;SDS011;66401;42.016;21.454;2023-04-09T06:15:42;31.77;;;17.83;;
62788;SDS011;66401;42.016;21.454;2023-04-09T06:18:08;29.63;;;17.73;;
62788;SDS011;66401;42.016;21.454;2023-04-09T06:20:33;27.23;;;17.20;;
62788;SDS011;66401;42.016;21.454;2023-04-09T06:22:59;29.20;;;17.40;;
62788;SDS011;66401;42.016;21.454;2023-04-09T06:25:24;29.43;;;16.07;;
62788;SDS011;66401;42.016;21.454;2023-04-09T06:27:50;21.73;;;13.97;;
62788;SDS011;66401;42.016;21.454;2023-04-09T06:30:16;21.43;;;13.57;;
62788;SDS011;66401;42.016;21.454;2023-04-09T06:32:41;18.37;;;11.57;;
62788;SDS011;66401;42.016;21.454;2023-04-09T06:35:09;15.93;;;10.80;;
62788;SDS011;66401;42.016;21.454;2023-04-09T06:37:35;17.10;;;11.03;;
62788;SDS011;66401;42.016;21.454;2023-04-09T06:40:00;14.00;;;10.53;;
62788;SDS011;66401;42.016;21.454;2023-04-09T06:42:27;14.17;;;8.67;;
62788;SDS011;66401;42.016;21.454;2023-04-09T06:44:52;14.83;;;8.73;;
62788;SDS011;66401;42.016;21.454;2023-04-09T06:47:18;13.00;;;8.60;;
62788;SDS011;66401;42.016;21.454;2023-04-09T06:49:43;14.07;;;9.20;;
62788;SDS011;66401;42.016;21.454;2023-04-09T06:52:09;14.13;;;9.03;;
62788;SDS011;66401;42.016;21.454;2023-04-09T06:54:34;13.17;;;9.53;;
62788;SDS011;66401;42.016;21.454;2023-04-09T06:57:00;13.40;;;8.67;;
62788;SDS011;66401;42.016;21.454;2023-04-09T06:59:25;15.03;;;9.57;;
62788;SDS011;66401;42.016;21.454;2023-04-09T07:01:51;12.80;;;9.33;;
62788;SDS011;66401;42.016;21.454;2023-04-09T07:04:17;13.43;;;9.27;;
62788;SDS011;66401;42.016;21.454;2023-04-09T07:06:42;14.37;;;10.07;;
62788;SDS011;66401;42.016;21.454;2023-04-09T07:09:08;16.33;;;9.20;;
62788;SDS011;66401;42.016;21.454;2023-04-09T07:11:33;17.70;;;10.50;;
62788;SDS011;66401;42.016;21.454;2023-04-09T07:13:59;12.90;;;9.80;;
62788;SDS011;66401;42.016;21.454;2023-04-09T07:16:24;14.70;;;9.00;;
62788;SDS011;66401;42.016;21.454;2023-04-09T07:18:50;10.37;;;7.90;;
62788;SDS011;66401;42.016;21.454;2023-04-09T07:21:15;11.93;;;7.37;;
62788;SDS011;66401;42.016;21.454;2023-04-09T07:23:41;11.63;;;7.60;;
62788;SDS011;66401;42.016;21.454;2023-04-09T07:26:06;11.27;;;7.73;;
62788;SDS011;66401;42.016;21.454;2023-04-09T07:28:32;11.60;;;7.77;;
62788;SDS011;66401;42.016;21.454;2023-04-09T07:30:58;11.10;;;8.03;;
62788;SDS011;66401;42.016;21.454;2023-04-09T07:33:26;12.33;;;7.33;;
62788;SDS011;66401;42.016;21.454;2023-04-09T07:35:52;10.30;;;7.60;;
62788;SDS011;66401;42.016;21.454;2023-04-09T07:38:17;6.83;;;5.77;;
62788;SDS011;66401;42.016;21.454;2023-04-09T07:40:43;6.80;;;5.30;;
62788;SDS011;66401;42.016;21.454;2023-04-09T07:43:09;7.00;;;5.83;;
62788;SDS011;66401;42.016;21.454;2023-04-09T07:45:34;9.27;;;6.43;;
62788;SDS011;66401;42.016;21.454;2023-04-09T07:48:00;9.77;;;6.67;;
62788;SDS011;66401;42.016;21.454;2023-04-09T07:50:25;12.00;;;7.00;;
62788;SDS011;66401;42.016;21.454;2023-04-09T07:52:51;10.23;;;7.47;;
62788;SDS011;66401;42.016;21.454;2023-04-09T07:55:16;8.47;;;6.70;;
62788;SDS011;66401;42.016;21.454;2023-04-09T07:57:42;11.17;;;7.77;;
62788;SDS011;66401;42.016;21.454;2023-04-09T08:00:10;11.97;;;7.60;;
62788;SDS011;66401;42.016;21.454;2023-04-09T08:02:36;11.47;;;7.80;;
62788;SDS011;66401;42.016;21.454;2023-04-09T08:05:02;10.83;;;7.17;;
62788;SDS011;66401;42.016;21.454;2023-04-09T08:07:27;7.00;;;6.03;;
62788;SDS011;66401;42.016;21.454;2023-04-09T08:09:53;6.20;;;5.30;;
62788;SDS011;66401;42.016;21.454;2023-04-09T08:12:18;7.07;;;5.07;;
62788;SDS011;66401;42.016;21.454;2023-04-09T08:14:44;6.77;;;4.67;;
62788;SDS011;66401;42.016;21.454;2023-04-09T08:17:09;7.57;;;5.77;;
62788;SDS011;66401;42.016;21.454;2023-04-09T08:19:35;8.70;;;5.50;;
62788;SDS011;66401;42.016;21.454;2023-04-09T08:22:00;8.43;;;5.27;;
62788;SDS011;66401;42.016;21.454;2023-04-09T08:24:26;5.70;;;5.20;;
62788;SDS011;66401;42.016;21.454;2023-04-09T08:26:52;7.40;;;5.73;;
62788;SDS011;66401;42.016;21.454;2023-04-09T08:29:18;9.77;;;6.30;;
62788;SDS011;66401;42.016;21.454;2023-04-09T08:31:43;7.97;;;6.53;;
62788;SDS011;66401;42.016;21.454;2023-04-09T08:34:09;10.30;;;6.87;;
62788;SDS011;66401;42.016;21.454;2023-04-09T08:36:35;9.10;;;6.50;;
62788;SDS011;66401;42.016;21.454;2023-04-09T08:39:01;8.47;;;5.90;;
62788;SDS011;66401;42.016;21.454;2023-04-09T08:41:27;9.00;;;6.97;;
62788;SDS011;66401;42.016;21.454;2023-04-09T08:43:53;7.80;;;5.70;;
62788;SDS011;66401;42.016;21.454;2023-04-09T08:46:20;9.20;;;6.70;;
62788;SDS011;66401;42.016;21.454;2023-04-09T08:48:47;7.27;;;6.27;;
62788;SDS011;66401;42.016;21.454;2023-04-09T08:51:23;8.70;;;6.73;;
62788;SDS011;66401;42.016;21.454;2023-04-09T08:53:54;12.77;;;8.30;;
62788;SDS011;66401;42.016;21.454;2023-04-09T08:56:21;8.73;;;6.97;;
62788;SDS011;66401;42.016;21.454;2023-04-09T08:58:46;8.90;;;7.07;;
62788;SDS011;66401;42.016;21.454;2023-04-09T09:04:00;7.67;;;5.90;;
62788;SDS011;66401;42.016;21.454;2023-04-09T09:06:29;8.67;;;5.77;;
62788;SDS011;66401;42.016;21.454;2023-04-09T09:11:36;10.50;;;7.10;;
62788;SDS011;66401;42.016;21.454;2023-04-09T09:14:15;11.83;;;6.47;;
62788;SDS011;66401;42.016;21.454;2023-04-09T09:16:43;9.13;;;7.07;;
62788;SDS011;66401;42.016;21.454;2023-04-09T09:19:28;9.07;;;5.80;;
62788;SDS011;66401;42.016;21.454;2023-04-09T09:22:04;9.33;;;6.20;;
62788;SDS011;66401;42.016;21.454;2023-04-09T09:24:32;6.40;;;5.33;;
62788;SDS011;66401;42.016;21.454;2023-04-09T09:27:00;8.33;;;4.90;;
62788;SDS011;66401;42.016;21.454;2023-04-09T09:29:26;9.17;;;6.27;;
62788;SDS011;66401;42.016;21.454;2023-04-09T09:31:53;5.73;;;5.13;;
62788;SDS011;66401;42.016;21.454;2023-04-09T09:34:20;6.73;;;5.87;;
62788;SDS011;66401;42.016;21.454;2023-04-09T09:36:46;6.10;;;5.37;;
62788;SDS011;66401;42.016;21.454;2023-04-09T09:39:12;5.87;;;5.17;;
62788;SDS011;66401;42.016;21.454;2023-04-09T09:41:39;6.20;;;4.97;;
62788;SDS011;66401;42.016;21.454;2023-04-09T09:44:08;5.17;;;4.67;;
62788;SDS011;66401;42.016;21.454;2023-04-09T09:46:36;7.77;;;5.30;;
62788;SDS011;66401;42.016;21.454;2023-04-09T09:49:04;7.03;;;5.33;;
62788;SDS011;66401;42.016;21.454;2023-04-09T09:51:30;10.00;;;8.10;;
62788;SDS011;66401;42.016;21.454;2023-04-09T09:53:56;6.10;;;5.00;;
62788;SDS011;66401;42.016;21.454;2023-04-09T09:56:23;6.47;;;5.60;;
62788;SDS011;66401;42.016;21.454;2023-04-09T09:59:19;4.83;;;4.40;;
62788;SDS011;66401;42.016;21.454;2023-04-09T10:01:46;6.10;;;4.70;;
62788;SDS011;66401;42.016;21.454;2023-04-09T10:04:15;5.90;;;5.30;;
62788;SDS011;66401;42.016;21.454;2023-04-09T10:06:45;7.43;;;4.97;;
62788;SDS011;66401;42.016;21.454;2023-04-09T10:09:12;4.83;;;3.70;;
62788;SDS011;66401;42.016;21.454;2023-04-09T10:11:38;7.70;;;5.37;;
62788;SDS011;66401;42.016;21.454;2023-04-09T10:14:08;7.87;;;5.20;;
62788;SDS011;66401;42.016;21.454;2023-04-09T10:16:33;6.73;;;4.87;;
62788;SDS011;66401;42.016;21.454;2023-04-09T10:19:00;5.07;;;4.27;;
62788;SDS011;66401;42.016;21.454;2023-04-09T10:24:09;8.73;;;6.90;;
62788;SDS011;66401;42.016;21.454;2023-04-09T10:26:38;10.60;;;7.60;;
62788;SDS011;66401;42.016;21.454;2023-04-09T10:29:05;6.53;;;5.87;;
62788;SDS011;66401;42.016;21.454;2023-04-09T10:31:45;5.03;;;4.53;;
62788;SDS011;66401;42.016;21.454;2023-04-09T10:34:19;4.47;;;4.07;;
62788;SDS011;66401;42.016;21.454;2023-04-09T10:36:50;5.20;;;4.70;;
62788;SDS011;66401;42.016;21.454;2023-04-09T10:39:17;5.73;;;4.80;;
62788;SDS011;66401;42.016;21.454;2023-04-09T10:41:43;5.53;;;4.93;;
62788;SDS011;66401;42.016;21.454;2023-04-09T10:44:23;7.37;;;4.37;;
62788;SDS011;66401;42.016;21.454;2023-04-09T10:46:54;10.57;;;4.93;;
62788;SDS011;66401;42.016;21.454;2023-04-09T10:51:50;7.87;;;5.90;;
62788;SDS011;66401;42.016;21.454;2023-04-09T10:57:15;4.67;;;4.20;;
62788;SDS011;66401;42.016;21.454;2023-04-09T10:59:46;9.17;;;5.47;;
62788;SDS011;66401;42.016;21.454;2023-04-09T11:05:17;6.80;;;5.03;;
62788;SDS011;66401;42.016;21.454;2023-04-09T11:10:31;5.63;;;4.80;;
62788;SDS011;66401;42.016;21.454;2023-04-09T11:12:57;5.77;;;4.87;;
62788;SDS011;66401;42.016;21.454;2023-04-09T11:15:23;6.20;;;4.33;;
62788;SDS011;66401;42.016;21.454;2023-04-09T11:17:49;7.07;;;5.70;;
62788;SDS011;66401;42.016;21.454;2023-04-09T11:20:15;6.37;;;5.43;;
62788;SDS011;66401;42.016;21.454;2023-04-09T11:22:43;8.13;;;5.50;;
62788;SDS011;66401;42.016;21.454;2023-04-09T11:25:09;6.07;;;4.90;;
62788;SDS011;66401;42.016;21.454;2023-04-09T11:27:37;6.13;;;4.67;;
62788;SDS011;66401;42.016;21.454;2023-04-09T11:30:04;6.10;;;5.10;;
62788;SDS011;66401;42.016;21.454;2023-04-09T11:32:30;6.27;;;5.17;;
62788;SDS011;66401;42.016;21.454;2023-04-09T11:34:56;12.10;;;8.47;;
62788;SDS011;66401;42.016;21.454;2023-04-09T11:37:22;22.33;;;12.03;;
62788;SDS011;66401;42.016;21.454;2023-04-09T11:39:48;8.23;;;5.57;;
62788;SDS011;66401;42.016;21.454;2023-04-09T11:42:18;6.50;;;4.97;;
62788;SDS011;66401;42.016;21.454;2023-04-09T11:44:44;7.40;;;5.53;;
62788;SDS011;66401;42.016;21.454;2023-04-09T11:47:10;5.83;;;4.90;;
62788;SDS011;66401;42.016;21.454;2023-04-09T11:49:37;5.70;;;5.20;;
62788;SDS011;66401;42.016;21.454;2023-04-09T11:52:03;6.03;;;4.97;;
62788;SDS011;66401;42.016;21.454;2023-04-09T11:54:32;5.77;;;5.17;;
62788;SDS011;66401;42.016;21.454;2023-04-09T11:56:58;6.23;;;5.50;;
62788;SDS011;66401;42.016;21.454;2023-04-09T11:59:24;6.93;;;5.63;;
62788;SDS011;66401;42.016;21.454;2023-04-09T12:01:51;7.63;;;5.77;;
62788;SDS011;66401;42.016;21.454;2023-04-09T12:04:19;6.47;;;5.80;;
62788;SDS011;66401;42.016;21.454;2023-04-09T12:06:45;5.73;;;5.23;;
62788;SDS011;66401;42.016;21.454;2023-04-09T12:09:12;5.87;;;5.27;;
62788;SDS011;66401;42.016;21.454;2023-04-09T12:11:38;6.83;;;5.57;;
62788;SDS011;66401;42.016;21.454;2023-04-09T12:14:07;5.90;;;5.30;;
62788;SDS011;66401;42.016;21.454;2023-04-09T12:16:37;8.47;;;6.10;;
62788;SDS011;66401;42.016;21.454;2023-04-09T12:19:05;9.40;;;5.67;;
62788;SDS011;66401;42.016;21.454;2023-04-09T12:24:14;8.83;;;5.77;;
62788;SDS011;66401;42.016;21.454;2023-04-09T12:26:41;7.47;;;6.23;;
62788;SDS011;66401;42.016;21.454;2023-04-09T12:29:07;10.90;;;6.60;;
62788;SDS011;66401;42.016;21.454;2023-04-09T12:31:32;8.37;;;6.93;;
62788;SDS011;66401;42.016;21.454;2023-04-09T12:33:58;7.70;;;6.53;;
62788;SDS011;66401;42.016;21.454;2023-04-09T12:36:23;8.73;;;7.07;;
62788;SDS011;66401;42.016;21.454;2023-04-09T12:38:50;9.80;;;6.43;;
62788;SDS011;66401;42.016;21.454;2023-04-09T12:41:15;8.23;;;6.50;;
62788;SDS011;66401;42.016;21.454;2023-04-09T12:43:41;9.10;;;6.87;;
62788;SDS011;66401;42.016;21.454;2023-04-09T12:46:11;7.47;;;6.63;;
62788;SDS011;66401;42.016;21.454;2023-04-09T12:48:37;7.83;;;6.50;;
62788;SDS011;66401;42.016;21.454;2023-04-09T12:51:02;8.13;;;6.73;;
62788;SDS011;66401;42.016;21.454;2023-04-09T12:53:28;7.80;;;6.67;;
62788;SDS011;66401;42.016;21.454;2023-04-09T12:55:53;7.97;;;6.53;;
62788;SDS011;66401;42.016;21.454;2023-04-09T12:58:19;6.37;;;5.33;;
62788;SDS011;66401;42.016;21.454;2023-04-09T13:00:44;8.33;;;7.30;;
62788;SDS011;66401;42.016;21.454;2023-04-09T13:03:10;9.13;;;6.43;;
62788;SDS011;66401;42.016;21.454;2023-04-09T13:05:35;7.33;;;6.40;;
62788;SDS011;66401;42.016;21.454;2023-04-09T13:08:01;7.83;;;6.30;;
62788;SDS011;66401;42.016;21.454;2023-04-09T13:10:28;8.47;;;6.97;;
62788;SDS011;66401;42.016;21.454;2023-04-09T13:12:54;7.00;;;6.33;;
62788;SDS011;66401;42.016;21.454;2023-04-09T13:15:20;7.53;;;6.50;;
62788;SDS011;66401;42.016;21.454;2023-04-09T13:17:46;9.13;;;7.20;;
62788;SDS011;66401;42.016;21.454;2023-04-09T13:20:12;8.30;;;6.63;;
62788;SDS011;66401;42.016;21.454;2023-04-09T13:22:38;8.37;;;5.93;;
62788;SDS011;66401;42.016;21.454;2023-04-09T13:25:03;28.47;;;20.10;;
62788;SDS011;66401;42.016;21.454;2023-04-09T13:27:29;11.53;;;8.87;;
62788;SDS011;66401;42.016;21.454;2023-04-09T13:29:55;11.67;;;8.03;;
62788;SDS011;66401;42.016;21.454;2023-04-09T13:32:20;7.23;;;6.10;;
62788;SDS011;66401;42.016;21.454;2023-04-09T13:34:47;6.80;;;5.63;;
62788;SDS011;66401;42.016;21.454;2023-04-09T13:37:13;7.70;;;5.80;;
62788;SDS011;66401;42.016;21.454;2023-04-09T13:39:39;8.57;;;6.60;;
62788;SDS011;66401;42.016;21.454;2023-04-09T13:42:05;8.53;;;6.13;;
62788;SDS011;66401;42.016;21.454;2023-04-09T13:44:31;10.10;;;6.90;;
62788;SDS011;66401;42.016;21.454;2023-04-09T13:46:56;9.07;;;6.73;;
62788;SDS011;66401;42.016;21.454;2023-04-09T13:49:22;9.13;;;7.37;;
62788;SDS011;66401;42.016;21.454;2023-04-09T13:51:48;7.70;;;6.40;;
62788;SDS011;66401;42.016;21.454;2023-04-09T13:54:15;8.67;;;6.70;;
62788;SDS011;66401;42.016;21.454;2023-04-09T13:56:40;8.80;;;6.17;;
62788;SDS011;66401;42.016;21.454;2023-04-09T13:59:06;8.97;;;6.30;;
62788;SDS011;66401;42.016;21.454;2023-04-09T14:01:32;7.77;;;6.43;;
62788;SDS011;66401;42.016;21.454;2023-04-09T14:03:58;9.57;;;7.60;;
62788;SDS011;66401;42.016;21.454;2023-04-09T14:06:24;16.30;;;10.83;;
62788;SDS011;66401;42.016;21.454;2023-04-09T14:08:50;8.00;;;6.73;;
62788;SDS011;66401;42.016;21.454;2023-04-09T14:11:15;8.27;;;6.27;;
62788;SDS011;66401;42.016;21.454;2023-04-09T14:13:41;7.17;;;6.30;;
62788;SDS011;66401;42.016;21.454;2023-04-09T14:16:07;9.40;;;6.97;;
62788;SDS011;66401;42.016;21.454;2023-04-09T14:18:33;7.10;;;6.40;;
62788;SDS011;66401;42.016;21.454;2023-04-09T14:20:58;8.10;;;6.87;;
62788;SDS011;66401;42.016;21.454;2023-04-09T14:23:24;9.87;;;8.30;;
62788;SDS011;66401;42.016;21.454;2023-04-09T14:25:50;10.17;;;7.53;;
62788;SDS011;66401;42.016;21.454;2023-04-09T14:28:17;8.40;;;7.10;;
62788;SDS011;66401;42.016;21.454;2023-04-09T14:30:43;7.30;;;6.33;;
62788;SDS011;66401;42.016;21.454;2023-04-09T14:33:08;9.30;;;6.97;;
62788;SDS011;66401;42.016;21.454;2023-04-09T14:35:34;6.70;;;6.00;;
62788;SDS011;66401;42.016;21.454;2023-04-09T14:38:00;7.93;;;6.43;;
62788;SDS011;66401;42.016;21.454;2023-04-09T14:40:32;11.03;;;6.73;;
62788;SDS011;66401;42.016;21.454;2023-04-09T14:42:58;8.53;;;6.57;;
62788;SDS011;66401;42.016;21.454;2023-04-09T14:45:23;8.57;;;6.70;;